createdAt,value
2017-10-20T00:01:04.647Z,8.73
2017-10-20T00:03:32.169Z,8.71
2017-10-20T00:05:59.741Z,8.72
2017-10-20T00:08:27.302Z,8.72
2017-10-20T00:10:54.974Z,8.67
2017-10-20T00:13:22.625Z,8.64
2017-10-20T00:15:50.087Z,8.64
2017-10-20T00:18:17.532Z,8.64
2017-10-20T00:20:44.981Z,8.63
2017-10-20T00:23:12.883Z,8.67
2017-10-20T00:25:40.332Z,8.61
2017-10-20T00:28:07.868Z,8.61
2017-10-20T00:30:35.880Z,8.60
2017-10-20T00:33:03.316Z,8.55
2017-10-20T00:35:30.995Z,8.52
2017-10-20T00:37:58.739Z,8.47
2017-10-20T00:40:26.285Z,8.44
2017-10-20T00:42:53.739Z,8.41
2017-10-20T00:45:21.315Z,8.38
2017-10-20T00:47:48.834Z,8.32
2017-10-20T00:50:16.371Z,8.31
2017-10-20T00:52:44.191Z,8.30
2017-10-20T00:55:11.658Z,8.31
2017-10-20T00:57:39.199Z,8.28
2017-10-20T01:00:07.072Z,8.25
2017-10-20T01:02:34.584Z,8.25
2017-10-20T01:05:02.016Z,8.21
2017-10-20T01:07:29.849Z,8.15
2017-10-20T01:09:57.344Z,8.13
2017-10-20T01:12:24.778Z,8.19
2017-10-20T01:14:52.435Z,8.24
2017-10-20T01:17:20.007Z,8.21
2017-10-20T01:19:47.532Z,8.17
2017-10-20T01:22:15.693Z,8.16
2017-10-20T01:24:43.207Z,8.16
2017-10-20T01:27:10.729Z,8.09
2017-10-20T01:29:38.280Z,8.01
2017-10-20T01:32:05.752Z,7.95
2017-10-20T01:34:33.218Z,7.93
2017-10-20T01:37:01.303Z,7.92
2017-10-20T01:39:28.855Z,7.95
2017-10-20T01:41:56.315Z,7.96
2017-10-20T01:44:23.824Z,7.94
2017-10-20T01:46:51.450Z,7.94
2017-10-20T01:49:18.895Z,7.87
2017-10-20T01:51:46.457Z,7.80
2017-10-20T01:54:13.907Z,7.76
2017-10-20T01:56:41.401Z,7.77
2017-10-20T01:59:09.167Z,7.79
2017-10-20T02:01:36.709Z,7.83
2017-10-20T02:04:05.195Z,7.83
2017-10-20T02:06:33.079Z,7.77
2017-10-20T02:09:00.602Z,7.73
2017-10-20T02:11:28.055Z,7.74
2017-10-20T02:13:55.630Z,7.81
2017-10-20T02:16:23.096Z,7.86
2017-10-20T02:18:50.632Z,7.87
2017-10-20T02:21:18.749Z,7.83
2017-10-20T02:23:46.218Z,7.79
2017-10-20T02:26:13.738Z,7.78
2017-10-20T02:28:41.832Z,7.79
2017-10-20T02:31:09.296Z,7.79
2017-10-20T02:33:36.768Z,7.76
2017-10-20T02:36:04.429Z,7.74
2017-10-20T02:38:31.880Z,7.67
2017-10-20T02:40:59.377Z,7.72
2017-10-20T02:43:27.130Z,7.68
2017-10-20T02:45:54.700Z,7.66
2017-10-20T02:48:22.141Z,7.72
2017-10-20T02:50:49.641Z,7.69
2017-10-20T02:53:19.107Z,7.68
2017-10-20T02:55:46.589Z,7.66
2017-10-20T02:58:14.101Z,7.67
2017-10-20T03:00:41.581Z,7.61
2017-10-20T03:03:09.074Z,7.62
2017-10-20T03:05:36.572Z,7.53
2017-10-20T03:08:04.064Z,7.41
2017-10-20T03:10:31.649Z,7.41
2017-10-20T03:12:59.636Z,7.38
2017-10-20T03:15:27.114Z,7.41
2017-10-20T03:17:54.638Z,7.40
2017-10-20T03:20:22.451Z,7.39
2017-10-20T03:22:49.878Z,7.45
2017-10-20T03:25:17.620Z,7.56
2017-10-20T03:27:45.104Z,7.57
2017-10-20T03:30:12.564Z,7.56
2017-10-20T03:32:39.988Z,7.54
2017-10-20T03:35:07.617Z,7.53
2017-10-20T03:37:35.097Z,7.52
2017-10-20T03:40:02.530Z,7.52
2017-10-20T03:42:30.063Z,7.56
2017-10-20T03:44:57.516Z,7.54
2017-10-20T03:47:25.092Z,7.49
2017-10-20T03:49:52.664Z,7.42
2017-10-20T03:52:20.117Z,7.43
2017-10-20T03:54:47.580Z,7.33
2017-10-20T03:57:15.109Z,7.31
2017-10-20T03:59:42.702Z,7.27
2017-10-20T04:02:10.451Z,7.26
2017-10-20T04:04:37.924Z,7.28
2017-10-20T04:07:05.476Z,7.33
2017-10-20T04:09:32.943Z,7.32
2017-10-20T04:12:00.539Z,7.31
2017-10-20T04:14:28.046Z,7.29
2017-10-20T04:16:55.598Z,7.30
2017-10-20T04:19:23.086Z,7.30
2017-10-20T04:21:50.524Z,7.28
2017-10-20T04:24:18.002Z,7.28
2017-10-20T04:26:45.505Z,7.28
2017-10-20T04:29:12.990Z,7.30
2017-10-20T04:31:40.443Z,7.32
2017-10-20T04:34:08.224Z,7.38
2017-10-20T04:36:35.802Z,7.40
2017-10-20T04:39:03.298Z,7.42
2017-10-20T04:41:30.871Z,7.46
2017-10-20T04:43:58.324Z,7.54
2017-10-20T04:46:25.878Z,7.60
2017-10-20T04:48:53.974Z,7.64
2017-10-20T04:51:21.460Z,7.71
2017-10-20T04:53:48.898Z,7.72
2017-10-20T04:56:16.396Z,7.73
2017-10-20T04:58:44.875Z,7.73
2017-10-20T05:01:12.378Z,7.77
2017-10-20T05:03:39.935Z,7.79
2017-10-20T05:06:07.402Z,7.79
2017-10-20T05:08:34.946Z,7.81
2017-10-20T05:11:02.616Z,7.84
2017-10-20T05:13:30.064Z,7.86
2017-10-20T05:15:57.531Z,7.91
2017-10-20T05:18:25.005Z,7.96
2017-10-20T05:20:52.513Z,7.99
2017-10-20T05:23:20.028Z,8.04
2017-10-20T05:25:47.522Z,8.05
2017-10-20T05:28:15.036Z,8.05
2017-10-20T05:30:42.564Z,8.05
2017-10-20T05:33:10.197Z,8.02
2017-10-20T05:35:37.679Z,8.03
2017-10-20T05:38:05.727Z,8.09
2017-10-20T05:40:33.328Z,8.14
2017-10-20T05:43:00.830Z,8.21
2017-10-20T05:45:29.269Z,8.26
2017-10-20T05:47:57.217Z,8.31
2017-10-20T05:50:25.563Z,8.34
2017-10-20T05:52:53.010Z,8.39
2017-10-20T05:55:20.550Z,8.39
2017-10-20T05:57:48.118Z,8.41
2017-10-20T06:00:16.423Z,8.44
2017-10-20T06:02:44.561Z,8.45
2017-10-20T06:05:12.014Z,8.46
2017-10-20T06:07:39.474Z,8.46
2017-10-20T06:10:07.411Z,8.52
2017-10-20T06:12:34.901Z,8.59
2017-10-20T06:15:02.405Z,8.67
2017-10-20T06:17:40.781Z,8.73
2017-10-20T06:20:08.284Z,8.79
2017-10-20T06:22:35.773Z,8.88
2017-10-20T06:25:03.464Z,8.94
2017-10-20T06:27:31.026Z,9.00
2017-10-20T06:29:58.589Z,8.99
2017-10-20T06:32:26.154Z,9.01
2017-10-20T06:34:53.731Z,9.06
2017-10-20T06:37:21.218Z,9.21
2017-10-20T06:39:49.075Z,9.39
2017-10-20T06:42:16.617Z,9.44
2017-10-20T06:44:44.090Z,9.38
2017-10-20T06:47:11.679Z,9.42
2017-10-20T06:49:39.173Z,9.47
2017-10-20T06:52:06.660Z,9.46
2017-10-20T06:54:34.347Z,9.48
2017-10-20T06:57:01.853Z,9.49
2017-10-20T06:59:29.323Z,9.55
2017-10-20T07:01:57.236Z,9.61
2017-10-20T07:04:24.746Z,9.67
2017-10-20T07:06:52.226Z,9.76
2017-10-20T07:09:20.297Z,9.84
2017-10-20T07:11:47.757Z,9.91
2017-10-20T07:14:15.325Z,10.01
2017-10-20T07:16:42.890Z,10.12
2017-10-20T07:22:19.995Z,10.38
2017-10-20T07:24:47.524Z,10.48
2017-10-20T07:27:14.995Z,10.53
2017-10-20T07:29:43.086Z,10.63
2017-10-20T07:32:11.383Z,10.69
2017-10-20T07:34:41.702Z,10.62
2017-10-20T07:37:09.619Z,10.50
2017-10-20T07:39:37.122Z,10.45
2017-10-20T07:42:05.355Z,10.42
2017-10-20T07:44:32.901Z,10.45
2017-10-20T07:47:00.407Z,10.48
2017-10-20T07:49:28.040Z,10.48
2017-10-20T07:51:56.012Z,10.52
2017-10-20T07:54:23.570Z,10.56
2017-10-20T07:56:51.080Z,10.61
2017-10-20T07:59:18.594Z,10.76
2017-10-20T08:01:46.066Z,10.98
2017-10-20T08:04:13.525Z,11.17
2017-10-20T08:06:41.460Z,11.35
2017-10-20T08:09:08.940Z,11.42
2017-10-20T08:11:36.442Z,11.55
2017-10-20T08:14:03.932Z,11.62
2017-10-20T08:16:31.419Z,11.85
2017-10-20T08:18:58.924Z,12.14
2017-10-20T08:21:26.559Z,12.27
2017-10-20T08:23:54.017Z,12.35
2017-10-20T08:26:21.670Z,12.27
2017-10-20T08:28:50.157Z,12.32
2017-10-20T08:31:17.608Z,12.50
2017-10-20T08:33:45.092Z,12.67
2017-10-20T08:36:13.072Z,12.79
2017-10-20T08:38:40.531Z,12.97
2017-10-20T08:41:09.848Z,13.11
2017-10-20T08:43:37.534Z,13.22
2017-10-20T08:46:05.330Z,13.30
2017-10-20T08:48:32.800Z,13.39
2017-10-20T08:51:01.123Z,13.58
2017-10-20T08:53:29.557Z,13.76
2017-10-20T08:55:57.050Z,13.98
2017-10-20T08:58:24.589Z,13.96
2017-10-20T09:00:52.139Z,13.89
2017-10-20T09:03:19.683Z,14.05
2017-10-20T09:05:48.348Z,14.17
2017-10-20T09:08:16.166Z,14.28
2017-10-20T09:10:43.883Z,14.37
2017-10-20T09:13:11.641Z,14.44
2017-10-20T09:15:39.312Z,14.44
2017-10-20T09:18:06.883Z,14.54
2017-10-20T09:20:34.669Z,14.55
2017-10-20T09:23:02.375Z,14.83
2017-10-20T09:25:29.862Z,15.06
2017-10-20T09:27:57.700Z,15.21
2017-10-20T09:30:25.173Z,15.44
2017-10-20T09:32:52.668Z,15.78
2017-10-20T09:35:20.236Z,15.96
2017-10-20T09:37:48.253Z,16.05
2017-10-20T09:40:17.751Z,16.48
2017-10-20T09:42:45.667Z,16.86
2017-10-20T09:45:13.127Z,16.93
2017-10-20T09:47:40.711Z,17.10
2017-10-20T09:50:08.382Z,17.15
2017-10-20T09:52:35.889Z,17.31
2017-10-20T09:55:03.682Z,17.60
2017-10-20T09:57:31.409Z,17.57
2017-10-20T09:59:59.153Z,17.30
2017-10-20T10:02:26.712Z,17.40
2017-10-20T10:04:54.226Z,17.59
2017-10-20T10:07:21.828Z,17.70
2017-10-20T10:09:49.638Z,17.79
2017-10-20T10:12:17.644Z,17.78
2017-10-20T10:14:45.247Z,17.71
2017-10-20T10:17:12.778Z,17.93
2017-10-20T10:19:40.459Z,18.07
2017-10-20T10:22:07.927Z,18.06
2017-10-20T10:24:35.467Z,17.99
2017-10-20T10:27:03.018Z,17.92
2017-10-20T10:29:30.958Z,18.04
2017-10-20T10:31:58.562Z,18.04
2017-10-20T10:34:26.564Z,18.15
2017-10-20T10:36:54.020Z,18.33
2017-10-20T10:39:21.481Z,18.51
2017-10-20T10:41:49.051Z,18.61
2017-10-20T10:44:16.530Z,18.75
2017-10-20T10:46:44.038Z,18.59
2017-10-20T10:49:11.530Z,18.82
2017-10-20T10:51:39.021Z,19.10
2017-10-20T10:54:06.504Z,19.06
2017-10-20T10:56:34.193Z,19.22
2017-10-20T10:59:01.646Z,19.34
2017-10-20T11:01:29.319Z,19.39
2017-10-20T11:03:57.271Z,19.28
2017-10-20T11:06:37.327Z,19.08
2017-10-20T11:09:17.026Z,19.00
2017-10-20T11:11:56.381Z,19.03
2017-10-20T11:14:23.946Z,18.88
2017-10-20T11:16:51.557Z,18.78
2017-10-20T11:19:19.975Z,18.74
2017-10-20T11:21:47.898Z,18.89
2017-10-20T11:24:15.424Z,18.83
2017-10-20T11:26:42.973Z,18.79
2017-10-20T11:29:10.953Z,18.84
2017-10-20T11:31:38.436Z,18.94
2017-10-20T11:34:05.965Z,18.87
2017-10-20T11:36:33.677Z,18.76
2017-10-20T11:39:01.295Z,18.76
2017-10-20T11:41:28.859Z,18.73
2017-10-20T11:43:56.352Z,18.58
2017-10-20T11:46:23.887Z,18.55
2017-10-20T11:48:51.492Z,18.41
2017-10-20T11:51:19.123Z,18.36
2017-10-20T11:53:46.803Z,18.34
2017-10-20T11:56:14.334Z,18.35
2017-10-20T11:58:41.958Z,18.37
2017-10-20T12:01:09.510Z,18.37
2017-10-20T12:03:37.030Z,18.40
2017-10-20T12:06:04.553Z,18.41
2017-10-20T12:08:31.985Z,18.33
2017-10-20T12:10:59.417Z,18.30
2017-10-20T12:13:26.989Z,18.19
2017-10-20T12:15:54.497Z,18.11
2017-10-20T12:18:22.013Z,18.11
2017-10-20T12:20:49.587Z,18.06
2017-10-20T12:23:17.164Z,18.11
2017-10-20T12:25:44.899Z,18.18
2017-10-20T12:28:12.474Z,18.24
2017-10-20T12:30:40.032Z,18.34
2017-10-20T12:33:07.735Z,18.50
2017-10-20T12:35:35.249Z,18.77
2017-10-20T12:38:02.837Z,18.93
2017-10-20T12:40:30.488Z,19.13
2017-10-20T12:42:57.972Z,19.21
2017-10-20T12:45:25.518Z,19.29
2017-10-20T12:47:53.081Z,19.44
2017-10-20T12:50:20.620Z,19.42
2017-10-20T12:52:48.708Z,19.47
2017-10-20T12:55:16.390Z,19.36
2017-10-20T12:57:44.426Z,19.24
2017-10-20T13:00:12.003Z,19.10
2017-10-20T13:02:39.530Z,18.94
2017-10-20T13:05:07.146Z,18.91
2017-10-20T13:07:34.659Z,18.83
2017-10-20T13:10:02.191Z,18.82
2017-10-20T13:12:29.694Z,18.86
2017-10-20T13:14:57.251Z,18.93
2017-10-20T13:17:24.740Z,19.06
2017-10-20T13:19:52.648Z,19.25
2017-10-20T13:22:20.103Z,19.24
2017-10-20T13:24:47.686Z,19.18
2017-10-20T13:27:15.258Z,19.10
2017-10-20T13:29:42.823Z,19.03
2017-10-20T13:32:10.263Z,19.02
2017-10-20T13:34:38.047Z,19.06
2017-10-20T13:37:05.989Z,19.01
2017-10-20T13:39:33.530Z,18.88
2017-10-20T13:42:01.446Z,18.65
2017-10-20T13:44:29.074Z,18.37
2017-10-20T13:46:56.676Z,18.11
2017-10-20T13:49:24.311Z,17.97
2017-10-20T13:51:51.800Z,17.86
2017-10-20T13:54:19.571Z,17.67
2017-10-20T13:56:47.127Z,17.58
2017-10-20T13:59:14.599Z,17.45
2017-10-20T14:01:42.276Z,17.40
2017-10-20T14:04:09.855Z,17.36
2017-10-20T14:06:37.518Z,17.33
2017-10-20T14:09:05.147Z,17.29
2017-10-20T14:11:32.849Z,17.27
2017-10-20T14:14:00.381Z,17.24
2017-10-20T14:16:27.962Z,17.17
2017-10-20T14:18:55.530Z,17.14
2017-10-20T14:21:23.184Z,17.11
2017-10-20T14:23:50.720Z,17.05
2017-10-20T14:26:18.671Z,17.08
2017-10-20T14:28:46.167Z,17.07
2017-10-20T14:31:13.741Z,17.08
2017-10-20T14:33:41.451Z,17.12
2017-10-20T14:36:08.993Z,17.15
2017-10-20T14:38:36.466Z,17.18
2017-10-20T14:41:04.170Z,17.22
2017-10-20T14:43:31.750Z,17.28
2017-10-20T14:45:59.274Z,17.36
2017-10-20T14:48:27.419Z,17.41
2017-10-20T14:50:55.134Z,17.45
2017-10-20T14:53:23.723Z,17.52
2017-10-20T14:55:51.223Z,17.60
2017-10-20T14:58:18.878Z,17.72
2017-10-20T15:00:46.425Z,17.78
2017-10-20T15:03:13.953Z,17.74
2017-10-20T15:05:41.476Z,17.73
2017-10-20T15:08:08.938Z,17.66
2017-10-20T15:10:36.677Z,17.68
2017-10-20T15:13:04.213Z,17.70
2017-10-20T15:15:31.688Z,17.69
2017-10-20T15:17:59.193Z,17.65
2017-10-20T15:20:26.748Z,17.61
2017-10-20T15:22:54.323Z,17.57
2017-10-20T15:25:22.011Z,17.51
2017-10-20T15:27:50.544Z,17.50
2017-10-20T15:30:18.107Z,17.47
2017-10-20T15:32:45.709Z,17.54
2017-10-20T15:35:13.255Z,17.60
2017-10-20T15:37:40.686Z,17.65
2017-10-20T15:40:08.364Z,17.69
2017-10-20T15:42:36.004Z,17.75
2017-10-20T15:45:03.569Z,17.64
2017-10-20T15:47:31.112Z,17.57
2017-10-20T15:49:58.891Z,17.54
2017-10-20T15:52:26.345Z,17.44
2017-10-20T15:54:53.874Z,17.31
2017-10-20T15:57:21.498Z,17.17
2017-10-20T15:59:48.948Z,17.03
2017-10-20T16:02:16.489Z,16.89
2017-10-20T16:04:43.970Z,16.76
2017-10-20T16:07:11.636Z,16.62
2017-10-20T16:09:39.174Z,16.51
2017-10-20T16:12:06.890Z,16.41
2017-10-20T16:14:34.465Z,16.37
2017-10-20T16:17:02.926Z,16.33
2017-10-20T16:19:30.434Z,16.28
2017-10-20T16:21:58.024Z,16.20
2017-10-20T16:24:25.623Z,16.11
2017-10-20T16:26:53.118Z,16.00
2017-10-20T16:29:20.829Z,15.87
2017-10-20T16:31:48.366Z,15.75
2017-10-20T16:34:16.051Z,15.64
2017-10-20T16:36:43.620Z,15.58
2017-10-20T16:39:11.936Z,15.54
2017-10-20T16:41:39.447Z,15.53
2017-10-20T16:44:07.539Z,15.49
2017-10-20T16:46:35.085Z,15.45
2017-10-20T16:49:02.719Z,15.41
2017-10-20T16:51:30.201Z,15.34
2017-10-20T16:53:58.004Z,15.30
2017-10-20T16:56:25.663Z,15.29
2017-10-20T16:58:53.195Z,15.25
2017-10-20T17:01:20.791Z,15.19
2017-10-20T17:03:48.469Z,15.13
2017-10-20T17:06:16.036Z,15.09
2017-10-20T17:08:43.978Z,15.01
2017-10-20T17:11:11.516Z,14.93
2017-10-20T17:13:40.020Z,14.85
2017-10-20T17:16:07.530Z,14.77
2017-10-20T17:18:35.065Z,14.72
2017-10-20T17:21:02.694Z,14.67
2017-10-20T17:23:30.377Z,14.62
2017-10-20T17:25:57.918Z,14.61
2017-10-20T17:28:25.456Z,14.59
2017-10-20T17:30:56.679Z,14.57
2017-10-20T17:33:24.748Z,14.60
2017-10-20T17:35:52.366Z,14.68
2017-10-20T17:38:20.061Z,14.94
2017-10-20T17:40:47.930Z,15.01
2017-10-20T17:43:15.488Z,15.02
2017-10-20T17:45:43.449Z,14.99
2017-10-20T17:48:11.067Z,14.93
2017-10-20T17:50:38.821Z,14.86
2017-10-20T17:53:06.457Z,14.80
2017-10-20T17:55:34.016Z,14.76
2017-10-20T17:58:01.516Z,14.70
2017-10-20T18:00:29.101Z,14.67
2017-10-20T18:02:56.849Z,14.64
2017-10-20T18:05:24.332Z,14.60
2017-10-20T18:07:51.889Z,14.56
2017-10-20T18:10:19.446Z,14.50
2017-10-20T18:12:47.027Z,14.45
2017-10-20T18:15:14.610Z,14.38
2017-10-20T18:17:42.169Z,14.32
2017-10-20T18:20:09.875Z,14.26
2017-10-20T18:22:39.357Z,14.21
2017-10-20T18:25:06.827Z,14.17
2017-10-20T18:27:34.388Z,14.14
2017-10-20T18:30:01.866Z,14.08
2017-10-20T18:32:29.473Z,14.05
2017-10-20T18:34:56.942Z,14.01
2017-10-20T18:37:24.576Z,14.00
2017-10-20T18:39:52.099Z,13.99
2017-10-20T18:42:19.862Z,13.97
2017-10-20T18:44:47.715Z,13.95
2017-10-20T18:47:15.279Z,13.93
2017-10-20T18:49:42.835Z,13.90
2017-10-20T18:52:10.332Z,13.86
2017-10-20T18:54:37.869Z,13.81
2017-10-20T18:57:05.364Z,13.79
2017-10-20T18:59:33.063Z,13.77
2017-10-20T19:02:00.877Z,13.75
2017-10-20T19:04:28.464Z,13.72
2017-10-20T19:06:56.152Z,13.68
2017-10-20T19:09:23.712Z,13.66
2017-10-20T19:11:51.307Z,13.64
2017-10-20T19:14:18.984Z,13.63
2017-10-20T19:16:46.640Z,13.60
2017-10-20T19:19:16.157Z,13.60
2017-10-20T19:21:43.799Z,13.55
2017-10-20T19:24:11.678Z,13.55
2017-10-20T19:26:39.237Z,13.53
2017-10-20T19:29:07.696Z,13.52
2017-10-20T19:31:35.324Z,13.51
2017-10-20T19:34:02.815Z,13.50
2017-10-20T19:36:30.592Z,13.51
2017-10-20T19:38:58.189Z,13.51
2017-10-20T19:41:25.744Z,13.51
2017-10-20T19:43:53.310Z,13.52
2017-10-20T19:46:20.869Z,13.53
2017-10-20T19:48:48.443Z,13.53
2017-10-20T19:51:16.073Z,13.51
2017-10-20T19:53:43.749Z,13.50
2017-10-20T19:56:11.455Z,13.50
2017-10-20T19:58:39.342Z,13.49
2017-10-20T20:01:07.058Z,13.48
2017-10-20T20:03:34.720Z,13.47
2017-10-20T20:06:02.324Z,13.46
2017-10-20T20:08:30.062Z,13.46
2017-10-20T20:10:57.551Z,13.44
2017-10-20T20:13:25.189Z,13.43
2017-10-20T20:15:52.699Z,13.42
2017-10-20T20:18:20.368Z,13.39
2017-10-20T20:20:47.924Z,13.38
2017-10-20T20:23:15.511Z,13.36
2017-10-20T20:25:43.160Z,13.34
2017-10-20T20:28:10.821Z,13.33
2017-10-20T20:30:49.077Z,13.31
2017-10-20T20:33:22.227Z,13.29
2017-10-20T20:35:49.804Z,13.25
2017-10-20T20:38:17.637Z,13.22
2017-10-20T20:40:45.318Z,13.19
2017-10-20T20:43:12.845Z,13.17
2017-10-20T20:45:40.464Z,13.15
2017-10-20T20:48:07.988Z,13.15
2017-10-20T20:50:35.464Z,13.14
2017-10-20T20:53:03.106Z,13.17
2017-10-20T20:55:30.679Z,13.16
2017-10-20T20:57:58.377Z,13.16
2017-10-20T21:00:25.877Z,13.17
2017-10-20T21:02:53.539Z,13.16
2017-10-20T21:05:21.101Z,13.17
2017-10-20T21:07:48.592Z,13.17
2017-10-20T21:10:16.258Z,13.18
2017-10-20T21:12:43.784Z,13.15
2017-10-20T21:15:11.417Z,13.12
2017-10-20T21:17:38.929Z,13.13
2017-10-20T21:20:06.448Z,13.13
2017-10-20T21:22:33.890Z,13.12
2017-10-20T21:25:01.402Z,13.11
2017-10-20T21:27:28.995Z,13.08
2017-10-20T21:29:56.486Z,13.08
2017-10-20T21:32:24.010Z,13.05
2017-10-20T21:34:51.556Z,13.04
2017-10-20T21:37:19.198Z,13.02
2017-10-20T21:39:46.740Z,13.02
2017-10-20T21:42:14.553Z,13.03
2017-10-20T21:44:42.062Z,12.99
2017-10-20T21:47:09.611Z,12.96
2017-10-20T21:49:37.291Z,12.92
2017-10-20T21:52:05.753Z,12.88
2017-10-20T21:54:33.388Z,12.86
2017-10-20T21:57:00.952Z,12.83
2017-10-20T21:59:28.528Z,12.83
2017-10-20T22:01:56.237Z,12.81
2017-10-20T22:04:23.725Z,12.78
2017-10-20T22:06:51.256Z,12.76
2017-10-20T22:09:19.255Z,12.75
2017-10-20T22:11:46.841Z,12.70
2017-10-20T22:14:14.304Z,12.68
2017-10-20T22:16:41.781Z,12.67
2017-10-20T22:19:09.269Z,12.66
2017-10-20T22:21:36.819Z,12.66
2017-10-20T22:24:05.236Z,12.66
2017-10-20T22:26:32.845Z,12.66
2017-10-20T22:29:00.319Z,12.64
2017-10-20T22:31:27.886Z,12.64
2017-10-20T22:33:55.361Z,12.64
2017-10-20T22:36:22.864Z,12.65
2017-10-20T22:38:50.437Z,12.65
2017-10-20T22:41:22.833Z,12.65
2017-10-20T22:43:50.280Z,12.66
2017-10-20T22:46:17.869Z,12.66
2017-10-20T22:48:45.449Z,12.64
2017-10-20T22:51:13.059Z,12.63
2017-10-20T22:53:40.533Z,12.64
2017-10-20T22:56:08.069Z,12.65
2017-10-20T22:58:35.549Z,12.64
2017-10-20T23:01:03.125Z,12.63
2017-10-20T23:03:30.586Z,12.62
2017-10-20T23:05:58.056Z,12.61
2017-10-20T23:08:25.612Z,12.59
2017-10-20T23:10:53.071Z,12.58
2017-10-20T23:13:20.533Z,12.57
2017-10-20T23:15:48.394Z,12.55
2017-10-20T23:18:16.126Z,12.54
2017-10-20T23:20:43.610Z,12.53
2017-10-20T23:23:11.277Z,12.54
2017-10-20T23:25:38.806Z,12.55
2017-10-20T23:28:06.285Z,12.56
2017-10-20T23:30:33.841Z,12.59
2017-10-20T23:33:01.331Z,12.59
2017-10-20T23:35:28.837Z,12.62
2017-10-20T23:37:56.401Z,12.62
2017-10-20T23:40:23.850Z,12.64
2017-10-20T23:42:51.320Z,12.65
2017-10-20T23:45:18.848Z,12.65
2017-10-20T23:47:46.295Z,12.64
2017-10-20T23:50:13.777Z,12.65
2017-10-20T23:52:41.445Z,12.64
2017-10-20T23:55:08.942Z,12.64
2017-10-20T23:57:36.415Z,12.65
